sensor_id;sensor_type;location;lat;lon;timestamp;P1;durP1;ratioP1;P2;durP2;ratioP2
43487;SDS011;29078;41.932;25.554;2022-07-17T00:00:21;6.65;;;3.50;;
43487;SDS011;29078;41.932;25.554;2022-07-17T00:02:47;4.13;;;3.70;;
43487;SDS011;29078;41.932;25.554;2022-07-17T00:05:15;4.95;;;4.45;;
43487;SDS011;29078;41.932;25.554;2022-07-17T00:07:41;4.68;;;4.22;;
43487;SDS011;29078;41.932;25.554;2022-07-17T00:10:07;5.97;;;3.58;;
43487;SDS011;29078;41.932;25.554;2022-07-17T00:12:32;4.10;;;3.75;;
43487;SDS011;29078;41.932;25.554;2022-07-17T00:14:58;5.45;;;3.90;;
43487;SDS011;29078;41.932;25.554;2022-07-17T00:17:23;6.68;;;3.63;;
43487;SDS011;29078;41.932;25.554;2022-07-17T00:19:49;6.97;;;3.50;;
43487;SDS011;29078;41.932;25.554;2022-07-17T00:22:14;6.32;;;4.20;;
43487;SDS011;29078;41.932;25.554;2022-07-17T00:24:40;3.60;;;3.30;;
43487;SDS011;29078;41.932;25.554;2022-07-17T00:27:06;4.90;;;3.50;;
43487;SDS011;29078;41.932;25.554;2022-07-17T00:29:31;3.88;;;3.42;;
43487;SDS011;29078;41.932;25.554;2022-07-17T00:31:57;4.97;;;3.60;;
43487;SDS011;29078;41.932;25.554;2022-07-17T00:34:22;3.85;;;3.33;;
43487;SDS011;29078;41.932;25.554;2022-07-17T00:36:48;6.38;;;3.80;;
43487;SDS011;29078;41.932;25.554;2022-07-17T00:39:13;7.45;;;4.28;;
43487;SDS011;29078;41.932;25.554;2022-07-17T00:41:39;5.65;;;3.75;;
43487;SDS011;29078;41.932;25.554;2022-07-17T00:44:08;6.60;;;3.90;;
43487;SDS011;29078;41.932;25.554;2022-07-17T00:46:34;5.75;;;3.63;;
43487;SDS011;29078;41.932;25.554;2022-07-17T00:49:00;4.05;;;3.53;;
43487;SDS011;29078;41.932;25.554;2022-07-17T00:51:27;4.15;;;3.83;;
43487;SDS011;29078;41.932;25.554;2022-07-17T00:53:52;4.18;;;3.70;;
43487;SDS011;29078;41.932;25.554;2022-07-17T00:56:20;4.10;;;3.78;;
43487;SDS011;29078;41.932;25.554;2022-07-17T00:58:47;6.57;;;4.18;;
43487;SDS011;29078;41.932;25.554;2022-07-17T01:01:14;4.50;;;4.15;;
43487;SDS011;29078;41.932;25.554;2022-07-17T01:03:40;4.53;;;4.03;;
43487;SDS011;29078;41.932;25.554;2022-07-17T01:06:05;7.47;;;4.18;;
43487;SDS011;29078;41.932;25.554;2022-07-17T01:08:31;4.70;;;4.13;;
43487;SDS011;29078;41.932;25.554;2022-07-17T01:10:57;6.78;;;4.10;;
43487;SDS011;29078;41.932;25.554;2022-07-17T01:13:23;4.38;;;3.97;;
43487;SDS011;29078;41.932;25.554;2022-07-17T01:15:49;5.57;;;3.78;;
43487;SDS011;29078;41.932;25.554;2022-07-17T01:18:14;4.68;;;4.05;;
43487;SDS011;29078;41.932;25.554;2022-07-17T01:20:41;4.22;;;3.90;;
43487;SDS011;29078;41.932;25.554;2022-07-17T01:23:09;4.60;;;4.20;;
43487;SDS011;29078;41.932;25.554;2022-07-17T01:25:35;5.25;;;4.28;;
43487;SDS011;29078;41.932;25.554;2022-07-17T01:28:01;6.43;;;4.18;;
43487;SDS011;29078;41.932;25.554;2022-07-17T01:30:27;5.28;;;4.03;;
43487;SDS011;29078;41.932;25.554;2022-07-17T01:32:53;4.32;;;3.92;;
43487;SDS011;29078;41.932;25.554;2022-07-17T01:35:19;5.95;;;4.28;;
43487;SDS011;29078;41.932;25.554;2022-07-17T01:37:45;6.70;;;4.40;;
43487;SDS011;29078;41.932;25.554;2022-07-17T01:40:11;5.80;;;4.53;;
43487;SDS011;29078;41.932;25.554;2022-07-17T01:42:38;4.82;;;4.43;;
43487;SDS011;29078;41.932;25.554;2022-07-17T01:45:06;7.53;;;4.45;;
43487;SDS011;29078;41.932;25.554;2022-07-17T01:47:33;6.07;;;4.30;;
43487;SDS011;29078;41.932;25.554;2022-07-17T01:49:59;5.93;;;4.65;;
43487;SDS011;29078;41.932;25.554;2022-07-17T01:52:25;5.75;;;4.60;;
43487;SDS011;29078;41.932;25.554;2022-07-17T01:54:51;5.75;;;4.80;;
43487;SDS011;29078;41.932;25.554;2022-07-17T01:57:17;4.70;;;4.20;;
43487;SDS011;29078;41.932;25.554;2022-07-17T01:59:43;6.75;;;4.55;;
43487;SDS011;29078;41.932;25.554;2022-07-17T02:02:09;5.47;;;4.50;;
43487;SDS011;29078;41.932;25.554;2022-07-17T02:04:35;6.32;;;4.43;;
43487;SDS011;29078;41.932;25.554;2022-07-17T02:07:03;5.32;;;4.65;;
43487;SDS011;29078;41.932;25.554;2022-07-17T02:09:29;5.47;;;4.38;;
43487;SDS011;29078;41.932;25.554;2022-07-17T02:11:55;4.97;;;4.57;;
43487;SDS011;29078;41.932;25.554;2022-07-17T02:14:21;5.28;;;4.78;;
43487;SDS011;29078;41.932;25.554;2022-07-17T02:16:46;9.82;;;5.10;;
43487;SDS011;29078;41.932;25.554;2022-07-17T02:19:12;4.93;;;4.53;;
43487;SDS011;29078;41.932;25.554;2022-07-17T02:21:37;5.00;;;4.45;;
43487;SDS011;29078;41.932;25.554;2022-07-17T02:24:03;6.10;;;4.30;;
43487;SDS011;29078;41.932;25.554;2022-07-17T02:26:29;5.00;;;4.50;;
43487;SDS011;29078;41.932;25.554;2022-07-17T02:28:54;5.47;;;4.65;;
43487;SDS011;29078;41.932;25.554;2022-07-17T02:31:20;5.90;;;4.53;;
43487;SDS011;29078;41.932;25.554;2022-07-17T02:33:45;6.65;;;4.00;;
43487;SDS011;29078;41.932;25.554;2022-07-17T02:36:11;7.30;;;4.57;;
43487;SDS011;29078;41.932;25.554;2022-07-17T02:38:36;6.00;;;4.82;;
43487;SDS011;29078;41.932;25.554;2022-07-17T02:41:01;6.03;;;4.43;;
43487;SDS011;29078;41.932;25.554;2022-07-17T02:43:27;4.72;;;4.32;;
43487;SDS011;29078;41.932;25.554;2022-07-17T02:45:52;6.68;;;4.20;;
43487;SDS011;29078;41.932;25.554;2022-07-17T02:48:18;4.50;;;4.10;;
43487;SDS011;29078;41.932;25.554;2022-07-17T02:50:43;5.03;;;4.43;;
43487;SDS011;29078;41.932;25.554;2022-07-17T02:53:09;5.05;;;4.35;;
43487;SDS011;29078;41.932;25.554;2022-07-17T02:55:34;6.82;;;4.18;;
43487;SDS011;29078;41.932;25.554;2022-07-17T02:57:59;6.65;;;4.10;;
43487;SDS011;29078;41.932;25.554;2022-07-17T03:00:25;5.10;;;4.40;;
43487;SDS011;29078;41.932;25.554;2022-07-17T03:02:52;5.65;;;4.53;;
43487;SDS011;29078;41.932;25.554;2022-07-17T03:05:18;6.72;;;4.55;;
43487;SDS011;29078;41.932;25.554;2022-07-17T03:07:44;6.65;;;4.28;;
43487;SDS011;29078;41.932;25.554;2022-07-17T03:10:11;5.05;;;4.53;;
43487;SDS011;29078;41.932;25.554;2022-07-17T03:12:37;7.75;;;4.55;;
43487;SDS011;29078;41.932;25.554;2022-07-17T03:15:03;8.63;;;4.70;;
43487;SDS011;29078;41.932;25.554;2022-07-17T03:17:29;5.05;;;4.55;;
43487;SDS011;29078;41.932;25.554;2022-07-17T03:19:54;9.65;;;5.28;;
43487;SDS011;29078;41.932;25.554;2022-07-17T03:22:20;5.47;;;4.95;;
43487;SDS011;29078;41.932;25.554;2022-07-17T03:24:48;5.18;;;4.53;;
43487;SDS011;29078;41.932;25.554;2022-07-17T03:27:14;5.18;;;4.70;;
43487;SDS011;29078;41.932;25.554;2022-07-17T03:29:40;5.25;;;4.75;;
43487;SDS011;29078;41.932;25.554;2022-07-17T03:32:06;6.43;;;4.43;;
43487;SDS011;29078;41.932;25.554;2022-07-17T03:34:31;6.15;;;4.50;;
43487;SDS011;29078;41.932;25.554;2022-07-17T03:36:57;5.43;;;4.30;;
43487;SDS011;29078;41.932;25.554;2022-07-17T03:39:22;6.53;;;4.90;;
43487;SDS011;29078;41.932;25.554;2022-07-17T03:41:48;5.40;;;4.90;;
43487;SDS011;29078;41.932;25.554;2022-07-17T03:44:13;6.70;;;5.25;;
43487;SDS011;29078;41.932;25.554;2022-07-17T03:46:38;7.72;;;4.40;;
43487;SDS011;29078;41.932;25.554;2022-07-17T03:49:04;7.70;;;4.78;;
43487;SDS011;29078;41.932;25.554;2022-07-17T03:51:29;5.75;;;4.35;;
43487;SDS011;29078;41.932;25.554;2022-07-17T03:53:55;4.90;;;4.22;;
43487;SDS011;29078;41.932;25.554;2022-07-17T03:56:20;6.57;;;4.82;;
43487;SDS011;29078;41.932;25.554;2022-07-17T03:58:46;8.63;;;5.07;;
43487;SDS011;29078;41.932;25.554;2022-07-17T04:01:11;5.97;;;4.72;;
43487;SDS011;29078;41.932;25.554;2022-07-17T04:03:37;5.60;;;4.57;;
43487;SDS011;29078;41.932;25.554;2022-07-17T04:06:02;7.05;;;4.70;;
43487;SDS011;29078;41.932;25.554;2022-07-17T04:08:28;5.32;;;4.53;;
43487;SDS011;29078;41.932;25.554;2022-07-17T04:10:53;7.93;;;5.15;;
43487;SDS011;29078;41.932;25.554;2022-07-17T04:13:19;7.53;;;5.63;;
43487;SDS011;29078;41.932;25.554;2022-07-17T04:15:44;7.05;;;5.43;;
43487;SDS011;29078;41.932;25.554;2022-07-17T04:18:25;7.00;;;5.03;;
43487;SDS011;29078;41.932;25.554;2022-07-17T04:23:20;6.30;;;5.22;;
43487;SDS011;29078;41.932;25.554;2022-07-17T04:25:46;6.40;;;4.70;;
43487;SDS011;29078;41.932;25.554;2022-07-17T04:28:11;6.38;;;4.90;;
43487;SDS011;29078;41.932;25.554;2022-07-17T04:30:37;6.95;;;4.97;;
43487;SDS011;29078;41.932;25.554;2022-07-17T04:33:03;5.55;;;4.80;;
43487;SDS011;29078;41.932;25.554;2022-07-17T04:35:28;7.35;;;4.90;;
43487;SDS011;29078;41.932;25.554;2022-07-17T04:37:54;8.80;;;5.22;;
43487;SDS011;29078;41.932;25.554;2022-07-17T04:40:20;7.35;;;4.68;;
43487;SDS011;29078;41.932;25.554;2022-07-17T04:42:45;6.55;;;4.30;;
43487;SDS011;29078;41.932;25.554;2022-07-17T04:45:11;7.28;;;4.78;;
43487;SDS011;29078;41.932;25.554;2022-07-17T04:47:38;7.30;;;4.38;;
43487;SDS011;29078;41.932;25.554;2022-07-17T04:50:04;7.32;;;4.80;;
43487;SDS011;29078;41.932;25.554;2022-07-17T04:52:29;5.88;;;3.97;;
43487;SDS011;29078;41.932;25.554;2022-07-17T04:54:55;8.93;;;4.60;;
43487;SDS011;29078;41.932;25.554;2022-07-17T04:57:20;7.50;;;4.20;;
43487;SDS011;29078;41.932;25.554;2022-07-17T04:59:45;5.57;;;4.60;;
43487;SDS011;29078;41.932;25.554;2022-07-17T05:02:11;5.32;;;4.10;;
43487;SDS011;29078;41.932;25.554;2022-07-17T05:04:36;5.57;;;4.78;;
43487;SDS011;29078;41.932;25.554;2022-07-17T05:07:02;4.60;;;3.88;;
43487;SDS011;29078;41.932;25.554;2022-07-17T05:09:27;4.63;;;4.07;;
43487;SDS011;29078;41.932;25.554;2022-07-17T05:11:53;6.68;;;4.40;;
43487;SDS011;29078;41.932;25.554;2022-07-17T05:14:18;9.18;;;4.00;;
43487;SDS011;29078;41.932;25.554;2022-07-17T05:16:44;5.63;;;4.10;;
43487;SDS011;29078;41.932;25.554;2022-07-17T05:19:09;5.82;;;3.70;;
43487;SDS011;29078;41.932;25.554;2022-07-17T05:21:35;6.03;;;3.63;;
43487;SDS011;29078;41.932;25.554;2022-07-17T05:24:00;5.90;;;3.30;;
43487;SDS011;29078;41.932;25.554;2022-07-17T05:26:26;7.03;;;3.53;;
43487;SDS011;29078;41.932;25.554;2022-07-17T05:28:51;9.13;;;3.75;;
43487;SDS011;29078;41.932;25.554;2022-07-17T05:31:17;3.85;;;3.22;;
43487;SDS011;29078;41.932;25.554;2022-07-17T05:33:42;3.67;;;3.13;;
43487;SDS011;29078;41.932;25.554;2022-07-17T05:36:08;3.92;;;3.10;;
43487;SDS011;29078;41.932;25.554;2022-07-17T05:38:34;4.40;;;2.90;;
43487;SDS011;29078;41.932;25.554;2022-07-17T05:40:59;7.38;;;3.58;;
43487;SDS011;29078;41.932;25.554;2022-07-17T05:43:25;4.82;;;3.15;;
43487;SDS011;29078;41.932;25.554;2022-07-17T05:45:52;5.03;;;3.17;;
43487;SDS011;29078;41.932;25.554;2022-07-17T05:48:21;5.15;;;3.33;;
43487;SDS011;29078;41.932;25.554;2022-07-17T05:50:47;6.57;;;3.90;;
43487;SDS011;29078;41.932;25.554;2022-07-17T05:53:12;5.18;;;3.63;;
43487;SDS011;29078;41.932;25.554;2022-07-17T05:55:39;6.80;;;3.75;;
43487;SDS011;29078;41.932;25.554;2022-07-17T05:58:04;6.15;;;3.95;;
43487;SDS011;29078;41.932;25.554;2022-07-17T06:00:30;3.83;;;3.50;;
43487;SDS011;29078;41.932;25.554;2022-07-17T06:02:55;5.10;;;3.78;;
43487;SDS011;29078;41.932;25.554;2022-07-17T06:05:20;3.97;;;3.58;;
43487;SDS011;29078;41.932;25.554;2022-07-17T06:07:46;6.45;;;4.32;;
43487;SDS011;29078;41.932;25.554;2022-07-17T06:10:12;4.30;;;3.70;;
43487;SDS011;29078;41.932;25.554;2022-07-17T06:12:37;4.38;;;3.60;;
43487;SDS011;29078;41.932;25.554;2022-07-17T06:15:03;4.55;;;4.03;;
43487;SDS011;29078;41.932;25.554;2022-07-17T06:17:29;4.32;;;3.88;;
43487;SDS011;29078;41.932;25.554;2022-07-17T06:19:54;5.97;;;3.67;;
43487;SDS011;29078;41.932;25.554;2022-07-17T06:22:20;5.20;;;3.85;;
43487;SDS011;29078;41.932;25.554;2022-07-17T06:24:46;6.05;;;3.63;;
43487;SDS011;29078;41.932;25.554;2022-07-17T06:27:12;5.30;;;4.10;;
43487;SDS011;29078;41.932;25.554;2022-07-17T06:29:38;6.60;;;3.75;;
43487;SDS011;29078;41.932;25.554;2022-07-17T06:32:03;4.60;;;3.47;;
43487;SDS011;29078;41.932;25.554;2022-07-17T06:34:29;6.75;;;3.92;;
43487;SDS011;29078;41.932;25.554;2022-07-17T06:36:55;5.05;;;4.47;;
43487;SDS011;29078;41.932;25.554;2022-07-17T06:39:20;5.38;;;4.88;;
43487;SDS011;29078;41.932;25.554;2022-07-17T06:41:45;7.05;;;4.25;;
43487;SDS011;29078;41.932;25.554;2022-07-17T06:44:11;6.57;;;4.72;;
43487;SDS011;29078;41.932;25.554;2022-07-17T06:46:36;5.32;;;4.80;;
43487;SDS011;29078;41.932;25.554;2022-07-17T06:49:02;6.50;;;4.97;;
43487;SDS011;29078;41.932;25.554;2022-07-17T06:51:27;8.38;;;4.43;;
43487;SDS011;29078;41.932;25.554;2022-07-17T06:53:53;7.40;;;4.57;;
43487;SDS011;29078;41.932;25.554;2022-07-17T06:56:18;6.40;;;5.40;;
43487;SDS011;29078;41.932;25.554;2022-07-17T06:58:44;4.72;;;4.18;;
43487;SDS011;29078;41.932;25.554;2022-07-17T07:01:09;11.23;;;5.07;;
43487;SDS011;29078;41.932;25.554;2022-07-17T07:03:34;7.25;;;4.50;;
43487;SDS011;29078;41.932;25.554;2022-07-17T07:06:00;5.75;;;4.63;;
43487;SDS011;29078;41.932;25.554;2022-07-17T07:08:26;4.30;;;3.95;;
43487;SDS011;29078;41.932;25.554;2022-07-17T07:10:51;6.00;;;3.85;;
43487;SDS011;29078;41.932;25.554;2022-07-17T07:13:17;4.25;;;3.83;;
43487;SDS011;29078;41.932;25.554;2022-07-17T07:15:42;4.20;;;3.80;;
43487;SDS011;29078;41.932;25.554;2022-07-17T07:18:08;7.03;;;4.05;;
43487;SDS011;29078;41.932;25.554;2022-07-17T07:20:33;7.13;;;4.10;;
43487;SDS011;29078;41.932;25.554;2022-07-17T07:22:59;4.07;;;3.63;;
43487;SDS011;29078;41.932;25.554;2022-07-17T07:25:24;4.82;;;4.18;;
43487;SDS011;29078;41.932;25.554;2022-07-17T07:27:50;6.10;;;3.90;;
43487;SDS011;29078;41.932;25.554;2022-07-17T07:30:15;4.47;;;4.03;;
43487;SDS011;29078;41.932;25.554;2022-07-17T07:32:40;3.60;;;3.35;;
43487;SDS011;29078;41.932;25.554;2022-07-17T07:35:06;4.22;;;3.53;;
43487;SDS011;29078;41.932;25.554;2022-07-17T07:37:33;5.05;;;4.07;;
43487;SDS011;29078;41.932;25.554;2022-07-17T07:39:58;3.83;;;3.33;;
43487;SDS011;29078;41.932;25.554;2022-07-17T07:42:24;4.40;;;3.33;;
43487;SDS011;29078;41.932;25.554;2022-07-17T07:44:50;4.43;;;3.60;;
43487;SDS011;29078;41.932;25.554;2022-07-17T07:47:17;7.43;;;3.50;;
43487;SDS011;29078;41.932;25.554;2022-07-17T07:49:42;4.63;;;3.50;;
43487;SDS011;29078;41.932;25.554;2022-07-17T07:52:08;6.63;;;3.90;;
43487;SDS011;29078;41.932;25.554;2022-07-17T07:54:33;4.68;;;3.25;;
43487;SDS011;29078;41.932;25.554;2022-07-17T07:56:59;5.68;;;3.10;;
43487;SDS011;29078;41.932;25.554;2022-07-17T07:59:24;4.65;;;3.00;;
43487;SDS011;29078;41.932;25.554;2022-07-17T08:01:50;6.32;;;3.20;;
43487;SDS011;29078;41.932;25.554;2022-07-17T08:04:15;4.25;;;2.85;;
43487;SDS011;29078;41.932;25.554;2022-07-17T08:06:42;4.43;;;3.08;;
43487;SDS011;29078;41.932;25.554;2022-07-17T08:09:08;6.40;;;3.08;;
43487;SDS011;29078;41.932;25.554;2022-07-17T08:11:34;8.70;;;3.78;;
43487;SDS011;29078;41.932;25.554;2022-07-17T08:14:00;3.38;;;3.10;;
43487;SDS011;29078;41.932;25.554;2022-07-17T08:16:25;6.43;;;4.13;;
43487;SDS011;29078;41.932;25.554;2022-07-17T08:18:51;4.80;;;3.30;;
43487;SDS011;29078;41.932;25.554;2022-07-17T08:21:16;4.60;;;3.50;;
43487;SDS011;29078;41.932;25.554;2022-07-17T08:23:41;3.53;;;3.22;;
43487;SDS011;29078;41.932;25.554;2022-07-17T08:26:07;3.97;;;3.28;;
43487;SDS011;29078;41.932;25.554;2022-07-17T08:28:32;4.70;;;3.20;;
43487;SDS011;29078;41.932;25.554;2022-07-17T08:30:58;5.55;;;3.17;;
43487;SDS011;29078;41.932;25.554;2022-07-17T08:33:23;3.85;;;2.80;;
43487;SDS011;29078;41.932;25.554;2022-07-17T08:35:49;4.93;;;2.22;;
43487;SDS011;29078;41.932;25.554;2022-07-17T08:38:14;4.28;;;2.30;;
43487;SDS011;29078;41.932;25.554;2022-07-17T08:40:40;5.93;;;2.20;;
43487;SDS011;29078;41.932;25.554;2022-07-17T08:43:08;3.22;;;2.28;;
43487;SDS011;29078;41.932;25.554;2022-07-17T08:45:34;5.20;;;2.53;;
43487;SDS011;29078;41.932;25.554;2022-07-17T08:48:00;5.15;;;2.85;;
43487;SDS011;29078;41.932;25.554;2022-07-17T08:50:27;4.35;;;2.40;;
43487;SDS011;29078;41.932;25.554;2022-07-17T08:52:54;2.63;;;2.35;;
43487;SDS011;29078;41.932;25.554;2022-07-17T08:55:20;3.42;;;2.47;;
43487;SDS011;29078;41.932;25.554;2022-07-17T08:57:46;4.15;;;2.13;;
43487;SDS011;29078;41.932;25.554;2022-07-17T09:00:12;5.03;;;2.85;;
43487;SDS011;29078;41.932;25.554;2022-07-17T09:02:51;4.82;;;2.70;;
43487;SDS011;29078;41.932;25.554;2022-07-17T09:05:22;2.35;;;2.03;;
43487;SDS011;29078;41.932;25.554;2022-07-17T09:07:48;3.15;;;2.00;;
43487;SDS011;29078;41.932;25.554;2022-07-17T09:10:14;2.95;;;2.00;;
43487;SDS011;29078;41.932;25.554;2022-07-17T09:12:39;2.80;;;1.55;;
43487;SDS011;29078;41.932;25.554;2022-07-17T09:15:15;2.38;;;1.80;;
43487;SDS011;29078;41.932;25.554;2022-07-17T09:17:48;2.20;;;1.90;;
43487;SDS011;29078;41.932;25.554;2022-07-17T09:20:17;6.65;;;2.72;;
43487;SDS011;29078;41.932;25.554;2022-07-17T09:22:59;5.32;;;2.65;;
43487;SDS011;29078;41.932;25.554;2022-07-17T09:25:33;3.38;;;2.33;;
43487;SDS011;29078;41.932;25.554;2022-07-17T09:28:05;2.88;;;2.45;;
43487;SDS011;29078;41.932;25.554;2022-07-17T09:30:32;2.92;;;2.47;;
43487;SDS011;29078;41.932;25.554;2022-07-17T09:33:00;2.45;;;2.25;;
43487;SDS011;29078;41.932;25.554;2022-07-17T09:35:25;5.28;;;3.15;;
43487;SDS011;29078;41.932;25.554;2022-07-17T09:37:53;2.95;;;2.20;;
43487;SDS011;29078;41.932;25.554;2022-07-17T09:40:19;3.85;;;2.20;;
43487;SDS011;29078;41.932;25.554;2022-07-17T09:43:05;4.00;;;2.90;;
43487;SDS011;29078;41.932;25.554;2022-07-17T09:45:31;4.75;;;3.03;;
43487;SDS011;29078;41.932;25.554;2022-07-17T09:47:58;5.22;;;2.67;;
43487;SDS011;29078;41.932;25.554;2022-07-17T09:50:24;4.03;;;2.95;;
43487;SDS011;29078;41.932;25.554;2022-07-17T09:52:52;3.33;;;2.58;;
43487;SDS011;29078;41.932;25.554;2022-07-17T09:55:20;2.60;;;2.40;;
43487;SDS011;29078;41.932;25.554;2022-07-17T09:57:51;3.75;;;2.50;;
43487;SDS011;29078;41.932;25.554;2022-07-17T10:00:19;4.93;;;2.80;;
43487;SDS011;29078;41.932;25.554;2022-07-17T10:02:47;2.72;;;2.50;;
43487;SDS011;29078;41.932;25.554;2022-07-17T10:05:13;10.00;;;2.40;;
43487;SDS011;29078;41.932;25.554;2022-07-17T10:07:44;3.15;;;2.15;;
43487;SDS011;29078;41.932;25.554;2022-07-17T10:10:10;6.77;;;3.03;;
43487;SDS011;29078;41.932;25.554;2022-07-17T10:12:37;2.55;;;2.33;;
43487;SDS011;29078;41.932;25.554;2022-07-17T10:15:05;6.50;;;2.72;;
43487;SDS011;29078;41.932;25.554;2022-07-17T10:17:32;2.78;;;2.10;;
43487;SDS011;29078;41.932;25.554;2022-07-17T10:19:58;2.35;;;2.00;;
43487;SDS011;29078;41.932;25.554;2022-07-17T10:22:24;3.55;;;1.85;;
43487;SDS011;29078;41.932;25.554;2022-07-17T10:24:54;3.28;;;2.20;;
43487;SDS011;29078;41.932;25.554;2022-07-17T10:27:25;4.10;;;1.95;;
43487;SDS011;29078;41.932;25.554;2022-07-17T10:30:08;3.60;;;2.22;;
43487;SDS011;29078;41.932;25.554;2022-07-17T10:32:35;4.65;;;2.60;;
43487;SDS011;29078;41.932;25.554;2022-07-17T10:35:05;3.38;;;2.10;;
43487;SDS011;29078;41.932;25.554;2022-07-17T10:37:38;3.60;;;1.77;;
43487;SDS011;29078;41.932;25.554;2022-07-17T10:42:42;8.77;;;2.10;;
43487;SDS011;29078;41.932;25.554;2022-07-17T10:45:45;4.47;;;2.10;;
43487;SDS011;29078;41.932;25.554;2022-07-17T10:48:08;4.45;;;1.70;;
43487;SDS011;29078;41.932;25.554;2022-07-17T10:50:44;1.95;;;1.73;;
43487;SDS011;29078;41.932;25.554;2022-07-17T10:53:23;4.43;;;1.80;;
43487;SDS011;29078;41.932;25.554;2022-07-17T10:56:00;2.72;;;1.60;;
43487;SDS011;29078;41.932;25.554;2022-07-17T10:58:31;2.50;;;1.77;;
43487;SDS011;29078;41.932;25.554;2022-07-17T11:01:15;2.78;;;1.80;;
43487;SDS011;29078;41.932;25.554;2022-07-17T11:03:48;4.13;;;1.67;;
43487;SDS011;29078;41.932;25.554;2022-07-17T11:06:19;4.10;;;1.83;;
43487;SDS011;29078;41.932;25.554;2022-07-17T11:08:47;2.28;;;1.80;;
43487;SDS011;29078;41.932;25.554;2022-07-17T11:11:18;2.97;;;1.63;;
43487;SDS011;29078;41.932;25.554;2022-07-17T11:13:48;1.70;;;1.50;;
43487;SDS011;29078;41.932;25.554;2022-07-17T11:16:27;5.10;;;1.90;;
43487;SDS011;29078;41.932;25.554;2022-07-17T11:18:54;4.43;;;1.88;;
43487;SDS011;29078;41.932;25.554;2022-07-17T11:21:20;4.13;;;1.98;;
43487;SDS011;29078;41.932;25.554;2022-07-17T11:23:50;5.78;;;1.50;;
43487;SDS011;29078;41.932;25.554;2022-07-17T11:26:17;2.22;;;1.67;;
43487;SDS011;29078;41.932;25.554;2022-07-17T11:28:44;3.28;;;1.88;;
43487;SDS011;29078;41.932;25.554;2022-07-17T11:31:23;2.10;;;1.70;;
43487;SDS011;29078;41.932;25.554;2022-07-17T11:36:23;4.80;;;2.25;;
43487;SDS011;29078;41.932;25.554;2022-07-17T11:38:51;4.90;;;2.05;;
43487;SDS011;29078;41.932;25.554;2022-07-17T11:41:18;4.63;;;1.98;;
43487;SDS011;29078;41.932;25.554;2022-07-17T11:43:45;4.85;;;1.63;;
43487;SDS011;29078;41.932;25.554;2022-07-17T11:46:12;4.93;;;2.15;;
43487;SDS011;29078;41.932;25.554;2022-07-17T11:48:40;5.47;;;2.30;;
43487;SDS011;29078;41.932;25.554;2022-07-17T11:51:07;5.38;;;2.20;;
43487;SDS011;29078;41.932;25.554;2022-07-17T11:53:33;2.90;;;1.83;;
43487;SDS011;29078;41.932;25.554;2022-07-17T11:56:00;3.58;;;1.92;;
43487;SDS011;29078;41.932;25.554;2022-07-17T11:58:26;2.10;;;1.65;;
43487;SDS011;29078;41.932;25.554;2022-07-17T12:01:02;1.85;;;1.75;;
43487;SDS011;29078;41.932;25.554;2022-07-17T12:03:29;2.15;;;1.80;;
43487;SDS011;29078;41.932;25.554;2022-07-17T12:05:54;2.80;;;1.88;;
43487;SDS011;29078;41.932;25.554;2022-07-17T12:08:20;4.28;;;1.83;;
43487;SDS011;29078;41.932;25.554;2022-07-17T12:10:46;1.95;;;1.80;;
43487;SDS011;29078;41.932;25.554;2022-07-17T12:13:14;3.63;;;2.30;;
43487;SDS011;29078;41.932;25.554;2022-07-17T12:15:41;2.53;;;2.33;;
43487;SDS011;29078;41.932;25.554;2022-07-17T12:20:49;2.80;;;2.08;;
43487;SDS011;29078;41.932;25.554;2022-07-17T12:23:27;3.53;;;1.63;;
43487;SDS011;29078;41.932;25.554;2022-07-17T12:26:02;3.10;;;1.88;;
43487;SDS011;29078;41.932;25.554;2022-07-17T12:28:31;2.17;;;1.90;;
43487;SDS011;29078;41.932;25.554;2022-07-17T12:30:57;3.13;;;2.08;;
43487;SDS011;29078;41.932;25.554;2022-07-17T12:33:23;2.65;;;1.92;;
43487;SDS011;29078;41.932;25.554;2022-07-17T12:35:48;2.58;;;1.77;;
43487;SDS011;29078;41.932;25.554;2022-07-17T12:38:14;2.67;;;1.70;;
43487;SDS011;29078;41.932;25.554;2022-07-17T12:40:40;1.98;;;1.70;;
43487;SDS011;29078;41.932;25.554;2022-07-17T12:43:06;3.17;;;1.70;;
43487;SDS011;29078;41.932;25.554;2022-07-17T12:45:33;1.85;;;1.65;;
43487;SDS011;29078;41.932;25.554;2022-07-17T12:47:59;2.53;;;1.70;;
43487;SDS011;29078;41.932;25.554;2022-07-17T12:50:24;3.10;;;1.70;;
43487;SDS011;29078;41.932;25.554;2022-07-17T12:52:49;2.33;;;1.67;;
43487;SDS011;29078;41.932;25.554;2022-07-17T12:55:15;4.95;;;2.10;;
43487;SDS011;29078;41.932;25.554;2022-07-17T12:57:40;3.25;;;2.00;;
43487;SDS011;29078;41.932;25.554;2022-07-17T13:00:06;2.53;;;1.92;;
43487;SDS011;29078;41.932;25.554;2022-07-17T13:02:32;3.50;;;1.90;;
43487;SDS011;29078;41.932;25.554;2022-07-17T13:04:58;1.77;;;1.67;;
43487;SDS011;29078;41.932;25.554;2022-07-17T13:07:23;2.78;;;1.60;;
43487;SDS011;29078;41.932;25.554;2022-07-17T13:09:49;3.10;;;1.65;;
43487;SDS011;29078;41.932;25.554;2022-07-17T13:12:14;3.65;;;1.98;;
43487;SDS011;29078;41.932;25.554;2022-07-17T13:14:39;5.57;;;1.88;;
43487;SDS011;29078;41.932;25.554;2022-07-17T13:17:05;1.60;;;1.50;;
43487;SDS011;29078;41.932;25.554;2022-07-17T13:19:31;2.55;;;1.83;;
43487;SDS011;29078;41.932;25.554;2022-07-17T13:21:56;1.95;;;1.85;;
43487;SDS011;29078;41.932;25.554;2022-07-17T13:24:22;2.95;;;2.20;;
43487;SDS011;29078;41.932;25.554;2022-07-17T13:26:47;2.63;;;2.00;;
43487;SDS011;29078;41.932;25.554;2022-07-17T13:29:13;2.80;;;1.75;;
43487;SDS011;29078;41.932;25.554;2022-07-17T13:31:38;4.68;;;1.85;;
43487;SDS011;29078;41.932;25.554;2022-07-17T13:34:03;4.80;;;1.70;;
43487;SDS011;29078;41.932;25.554;2022-07-17T13:36:29;2.15;;;1.70;;
43487;SDS011;29078;41.932;25.554;2022-07-17T13:38:54;2.53;;;1.95;;
43487;SDS011;29078;41.932;25.554;2022-07-17T13:41:20;3.85;;;1.95;;
43487;SDS011;29078;41.932;25.554;2022-07-17T13:43:47;6.18;;;1.92;;
43487;SDS011;29078;41.932;25.554;2022-07-17T13:46:12;2.53;;;2.13;;
43487;SDS011;29078;41.932;25.554;2022-07-17T13:48:38;3.63;;;1.95;;
43487;SDS011;29078;41.932;25.554;2022-07-17T13:51:04;3.67;;;2.13;;
43487;SDS011;29078;41.932;25.554;2022-07-17T13:53:31;2.20;;;1.95;;
43487;SDS011;29078;41.932;25.554;2022-07-17T13:55:56;9.27;;;1.70;;
43487;SDS011;29078;41.932;25.554;2022-07-17T13:58:22;2.85;;;1.90;;
43487;SDS011;29078;41.932;25.554;2022-07-17T14:00:50;3.05;;;1.67;;
43487;SDS011;29078;41.932;25.554;2022-07-17T14:03:15;2.28;;;1.73;;
43487;SDS011;29078;41.932;25.554;2022-07-17T14:05:41;2.47;;;1.80;;
43487;SDS011;29078;41.932;25.554;2022-07-17T14:08:06;2.42;;;2.00;;
43487;SDS011;29078;41.932;25.554;2022-07-17T14:10:32;3.53;;;1.90;;
43487;SDS011;29078;41.932;25.554;2022-07-17T14:12:58;2.85;;;2.00;;
43487;SDS011;29078;41.932;25.554;2022-07-17T14:15:23;2.03;;;1.83;;
43487;SDS011;29078;41.932;25.554;2022-07-17T14:17:48;2.78;;;1.70;;
43487;SDS011;29078;41.932;25.554;2022-07-17T14:20:14;3.70;;;1.50;;
43487;SDS011;29078;41.932;25.554;2022-07-17T14:22:39;2.72;;;2.03;;
43487;SDS011;29078;41.932;25.554;2022-07-17T14:25:05;4.38;;;2.10;;
43487;SDS011;29078;41.932;25.554;2022-07-17T14:27:31;3.60;;;1.92;;
43487;SDS011;29078;41.932;25.554;2022-07-17T14:29:57;2.45;;;1.70;;
43487;SDS011;29078;41.932;25.554;2022-07-17T14:32:22;2.17;;;1.90;;
43487;SDS011;29078;41.932;25.554;2022-07-17T14:34:47;5.32;;;2.00;;
43487;SDS011;29078;41.932;25.554;2022-07-17T14:37:13;2.63;;;1.88;;
43487;SDS011;29078;41.932;25.554;2022-07-17T14:39:38;2.63;;;1.83;;